createdAt,value
2017-06-17T00:00:37.765Z,18.01
2017-06-17T00:01:50.655Z,17.89
2017-06-17T00:03:02.564Z,17.92
2017-06-17T00:04:15.458Z,17.94
2017-06-17T00:05:28.350Z,17.87
2017-06-17T00:06:41.441Z,17.89
2017-06-17T00:07:54.334Z,17.92
2017-06-17T00:09:07.237Z,18.02
2017-06-17T00:10:19.641Z,17.87
2017-06-17T00:11:32.537Z,17.81
2017-06-17T00:12:45.435Z,17.87
2017-06-17T00:13:58.332Z,17.81
2017-06-17T00:15:11.223Z,17.86
2017-06-17T00:16:23.627Z,17.87
2017-06-17T00:17:36.235Z,17.81
2017-06-17T00:18:49.124Z,17.84
2017-06-17T00:20:02.020Z,17.73
2017-06-17T00:21:14.915Z,17.7
2017-06-17T00:22:27.325Z,17.71
2017-06-17T00:23:39.730Z,17.66
2017-06-17T00:24:52.620Z,17.57
2017-06-17T00:26:05.516Z,17.66
2017-06-17T00:27:18.413Z,17.74
2017-06-17T00:28:31.309Z,17.7
2017-06-17T00:29:44.232Z,17.73
2017-06-17T00:30:56.637Z,17.7
2017-06-17T00:32:09.530Z,17.73
2017-06-17T00:33:22.426Z,17.51
2017-06-17T00:34:35.321Z,17.63
2017-06-17T00:35:48.213Z,17.54
2017-06-17T00:37:01.104Z,17.6
2017-06-17T00:38:13.505Z,17.55
2017-06-17T00:39:26.596Z,17.57
2017-06-17T00:40:39.486Z,17.68
2017-06-17T00:41:52.387Z,17.7
2017-06-17T00:43:04.792Z,17.68
2017-06-17T00:44:17.689Z,17.74
2017-06-17T00:45:30.093Z,17.74
2017-06-17T00:46:43.004Z,17.71
2017-06-17T00:47:55.403Z,17.6
2017-06-17T00:49:08.295Z,17.68
2017-06-17T00:50:21.393Z,17.73
2017-06-17T00:51:34.287Z,17.77
2017-06-17T00:52:47.175Z,17.62
2017-06-17T00:54:00.066Z,17.68
2017-06-17T00:55:12.966Z,17.66
2017-06-17T00:56:25.380Z,17.65
2017-06-17T00:57:38.278Z,17.63
2017-06-17T00:58:50.686Z,17.71
2017-06-17T01:00:03.576Z,17.66
2017-06-17T01:01:15.977Z,17.74
2017-06-17T01:02:28.872Z,17.63
2017-06-17T01:03:41.798Z,17.53
2017-06-17T01:04:54.720Z,17.45
2017-06-17T01:06:07.352Z,17.49
2017-06-17T01:07:20.247Z,17.42
2017-06-17T01:08:33.139Z,17.46
2017-06-17T01:09:46.033Z,17.47
2017-06-17T01:10:58.933Z,17.46
2017-06-17T01:12:11.544Z,17.47
2017-06-17T01:13:24.447Z,17.49
2017-06-17T01:14:37.336Z,17.43
2017-06-17T01:15:49.743Z,17.4
2017-06-17T01:17:02.642Z,17.36
2017-06-17T01:18:15.537Z,17.32
2017-06-17T01:19:27.454Z,17.4
2017-06-17T01:20:40.346Z,17.3
2017-06-17T01:21:53.244Z,17.38
2017-06-17T01:23:06.146Z,17.33
2017-06-17T01:24:19.043Z,17.38
2017-06-17T01:25:31.937Z,17.4
2017-06-17T01:26:44.345Z,17.36
2017-06-17T01:27:57.234Z,17.33
2017-06-17T01:29:10.132Z,17.27
2017-06-17T01:30:22.538Z,17.28
2017-06-17T01:31:34.943Z,17.17
2017-06-17T01:32:47.344Z,17.17
2017-06-17T01:34:00.270Z,17.14
2017-06-17T01:35:13.159Z,17.14
2017-06-17T01:36:25.069Z,17.2
2017-06-17T01:37:37.479Z,17.2
2017-06-17T01:38:50.373Z,17.21
2017-06-17T01:40:03.270Z,17.14
2017-06-17T01:41:16.168Z,17.2
2017-06-17T01:42:29.065Z,17.17
2017-06-17T01:43:41.965Z,17.21
2017-06-17T01:44:54.901Z,17.27
2017-06-17T01:46:07.819Z,17.15
2017-06-17T01:47:20.728Z,17.18
2017-06-17T01:48:33.680Z,17.18
2017-06-17T01:49:46.645Z,17.2
2017-06-17T01:50:59.120Z,17.17
2017-06-17T01:52:11.631Z,17.15
2017-06-17T01:53:24.126Z,17.24
2017-06-17T01:54:36.532Z,17.15
2017-06-17T01:55:49.444Z,17.22
2017-06-17T01:57:01.873Z,17.21
2017-06-17T01:58:14.540Z,17.18
2017-06-17T01:59:26.583Z,17.22
2017-06-17T02:00:39.888Z,17.17
2017-06-17T02:01:53.011Z,17.15
2017-06-17T02:03:06.223Z,17.2
2017-06-17T02:04:19.549Z,17.14
2017-06-17T02:05:32.794Z,17.18
2017-06-17T02:06:45.854Z,17.18
2017-06-17T02:07:58.880Z,17.22
2017-06-17T02:09:11.794Z,17.2
2017-06-17T02:10:24.092Z,17.2
2017-06-17T02:11:36.939Z,17.24
2017-06-17T02:12:49.840Z,17.22
2017-06-17T02:14:02.385Z,17.24
2017-06-17T02:15:14.934Z,17.25
2017-06-17T02:16:27.846Z,17.2
2017-06-17T02:17:40.019Z,17.18
2017-06-17T02:18:52.987Z,17.21
2017-06-17T02:20:05.446Z,17.14
2017-06-17T02:21:18.428Z,17.05
2017-06-17T02:22:30.870Z,17.03
2017-06-17T02:23:43.864Z,17
2017-06-17T02:24:56.365Z,16.96
2017-06-17T02:26:09.407Z,16.96
2017-06-17T02:27:22.276Z,16.98
2017-06-17T02:28:34.573Z,16.95
2017-06-17T02:29:47.344Z,17.03
2017-06-17T02:30:59.163Z,17.03
2017-06-17T02:32:11.529Z,17.12
2017-06-17T02:33:24.151Z,16.95
2017-06-17T02:34:37.083Z,16.96
2017-06-17T02:35:49.508Z,16.96
2017-06-17T02:37:01.929Z,16.98
2017-06-17T02:38:13.861Z,16.9
2017-06-17T02:39:26.977Z,17
2017-06-17T02:40:39.894Z,16.92
2017-06-17T02:41:52.809Z,16.87
2017-06-17T02:43:05.709Z,16.88
2017-06-17T02:44:18.806Z,16.91
2017-06-17T02:45:31.700Z,16.84
2017-06-17T02:46:44.592Z,16.85
2017-06-17T02:47:57.484Z,16.88
2017-06-17T02:49:09.886Z,16.8
2017-06-17T02:50:22.778Z,16.8
2017-06-17T02:51:35.672Z,16.78
2017-06-17T02:52:48.565Z,16.73
2017-06-17T02:54:00.968Z,16.7
2017-06-17T02:55:13.369Z,16.78
2017-06-17T02:56:25.779Z,16.78
2017-06-17T02:57:38.670Z,16.8
2017-06-17T02:58:51.074Z,16.75
2017-06-17T03:00:04.001Z,16.8
2017-06-17T03:01:16.119Z,16.82
2017-06-17T03:02:29.014Z,16.84
2017-06-17T03:03:41.907Z,16.78
2017-06-17T03:04:54.796Z,16.8
2017-06-17T03:06:07.889Z,16.77
2017-06-17T03:07:20.293Z,16.7
2017-06-17T03:08:32.707Z,16.65
2017-06-17T03:09:45.602Z,16.62
2017-06-17T03:10:58.501Z,16.52
2017-06-17T03:12:11.107Z,16.42
2017-06-17T03:13:23.512Z,16.5
2017-06-17T03:14:36.402Z,16.45
2017-06-17T03:15:48.802Z,16.57
2017-06-17T03:17:01.694Z,16.62
2017-06-17T03:18:14.584Z,16.63
2017-06-17T03:19:27.026Z,16.69
2017-06-17T03:20:40.004Z,16.63
2017-06-17T03:21:52.980Z,16.7
2017-06-17T03:23:05.959Z,16.7
2017-06-17T03:24:18.937Z,16.73
2017-06-17T03:25:30.926Z,16.66
2017-06-17T03:26:43.903Z,16.8
2017-06-17T03:27:56.385Z,16.75
2017-06-17T03:29:08.867Z,16.78
2017-06-17T03:30:21.350Z,16.75
2017-06-17T03:31:34.332Z,16.75
2017-06-17T03:32:47.309Z,16.78
2017-06-17T03:34:00.487Z,16.72
2017-06-17T03:35:12.974Z,16.78
2017-06-17T03:36:25.955Z,16.8
2017-06-17T03:37:38.938Z,16.81
2017-06-17T03:38:52.118Z,16.6
2017-06-17T03:40:05.093Z,16.5
2017-06-17T03:41:17.582Z,16.5
2017-06-17T03:42:30.061Z,16.52
2017-06-17T03:43:42.047Z,16.45
2017-06-17T03:44:55.220Z,16.44
2017-06-17T03:46:07.700Z,16.6
2017-06-17T03:47:19.689Z,16.52
2017-06-17T03:48:32.666Z,16.51
2017-06-17T03:49:45.841Z,16.55
2017-06-17T03:50:58.816Z,16.51
2017-06-17T03:52:11.793Z,16.51
2017-06-17T03:53:24.793Z,16.55
2017-06-17T03:54:37.831Z,16.45
2017-06-17T03:55:51.068Z,16.57
2017-06-17T03:57:03.604Z,16.5
2017-06-17T03:58:16.138Z,16.48
2017-06-17T03:59:29.170Z,16.5
2017-06-17T04:00:41.904Z,16.51
2017-06-17T04:01:54.939Z,16.51
2017-06-17T04:03:07.973Z,16.42
2017-06-17T04:04:21.004Z,16.52
2017-06-17T04:05:34.037Z,16.34
2017-06-17T04:06:47.272Z,16.44
2017-06-17T04:08:00.328Z,16.33
2017-06-17T04:09:12.872Z,16.33
2017-06-17T04:10:25.410Z,16.32
2017-06-17T04:11:38.381Z,16.29
2017-06-17T04:12:51.316Z,16.27
2017-06-17T04:14:03.742Z,16.27
2017-06-17T04:15:16.162Z,16.18
2017-06-17T04:16:29.075Z,16.26
2017-06-17T04:17:42.139Z,16.26
2017-06-17T04:18:53.947Z,16.23
2017-06-17T04:20:05.757Z,16.25
2017-06-17T04:21:17.573Z,16.29
2017-06-17T04:22:30.551Z,16.25
2017-06-17T04:23:43.331Z,16.25
2017-06-17T04:24:56.102Z,16.29
2017-06-17T04:26:07.914Z,16.23
2017-06-17T04:27:20.206Z,16.18
2017-06-17T04:28:32.699Z,16.23
2017-06-17T04:29:45.474Z,16.17
2017-06-17T04:30:58.252Z,16.16
2017-06-17T04:32:11.028Z,16.13
2017-06-17T04:33:24.016Z,16.22
2017-06-17T04:34:36.797Z,16.29
2017-06-17T04:35:49.090Z,16.22
2017-06-17T04:37:01.384Z,16.17
2017-06-17T04:38:14.160Z,16.33
2017-06-17T04:39:26.946Z,16.36
2017-06-17T04:40:39.247Z,16.22
2017-06-17T04:41:52.021Z,16.22
2017-06-17T04:43:04.797Z,16.17
2017-06-17T04:44:17.776Z,16.14
2017-06-17T04:45:30.554Z,16.1
2017-06-17T04:46:43.340Z,15.93
2017-06-17T04:47:56.117Z,15.91
2017-06-17T04:49:08.415Z,15.92
2017-06-17T04:50:21.392Z,15.86
2017-06-17T04:51:33.204Z,15.91
2017-06-17T04:52:46.010Z,15.96
2017-06-17T04:53:58.785Z,16.04
2017-06-17T04:55:11.563Z,16.1
2017-06-17T04:56:24.410Z,16.07
2017-06-17T04:57:36.821Z,16.11
2017-06-17T04:58:49.714Z,16.11
2017-06-17T05:00:01.632Z,16.14
2017-06-17T05:01:14.734Z,16.14
2017-06-17T05:02:27.631Z,16.16
2017-06-17T05:03:40.525Z,16.18
2017-06-17T05:04:53.418Z,16.07
2017-06-17T05:06:06.515Z,16.14
2017-06-17T05:07:18.922Z,16.07
2017-06-17T05:08:30.837Z,15.98
2017-06-17T05:09:43.734Z,15.95
2017-06-17T05:10:56.628Z,15.91
2017-06-17T05:12:09.030Z,15.92
2017-06-17T05:13:21.922Z,15.89
2017-06-17T05:14:34.333Z,15.85
2017-06-17T05:15:47.227Z,15.84
2017-06-17T05:17:00.122Z,15.8
2017-06-17T05:18:13.024Z,15.77
2017-06-17T05:19:25.919Z,15.74
2017-06-17T05:20:38.821Z,15.78
2017-06-17T05:21:51.743Z,15.77
2017-06-17T05:23:04.839Z,15.7
2017-06-17T05:24:17.273Z,15.78
2017-06-17T05:25:29.716Z,15.81
2017-06-17T05:26:42.604Z,15.77
2017-06-17T05:27:55.500Z,15.73
2017-06-17T05:29:07.949Z,15.71
2017-06-17T05:30:20.856Z,15.6
2017-06-17T05:31:33.784Z,15.66
2017-06-17T05:32:46.209Z,15.62
2017-06-17T05:33:59.274Z,15.56
2017-06-17T05:35:12.376Z,15.55
2017-06-17T05:36:25.510Z,15.59
2017-06-17T05:37:38.624Z,15.56
2017-06-17T05:38:51.965Z,15.48
2017-06-17T05:40:05.172Z,15.43
2017-06-17T05:41:18.358Z,15.41
2017-06-17T05:42:31.500Z,15.44
2017-06-17T05:43:43.671Z,15.49
2017-06-17T05:44:56.402Z,15.37
2017-06-17T05:46:09.422Z,15.41
2017-06-17T05:47:21.910Z,15.41
2017-06-17T05:48:34.328Z,15.41
2017-06-17T05:49:47.236Z,15.46
2017-06-17T05:50:59.697Z,15.41
2017-06-17T05:52:12.144Z,15.51
2017-06-17T05:53:25.083Z,15.46
2017-06-17T05:54:37.990Z,15.59
2017-06-17T05:55:51.101Z,15.58
2017-06-17T05:57:03.522Z,15.58
2017-06-17T05:58:16.436Z,15.59
2017-06-17T05:59:29.342Z,15.62
2017-06-17T06:00:42.450Z,15.53
2017-06-17T06:01:55.364Z,15.6
2017-06-17T06:03:08.316Z,15.56
2017-06-17T06:04:21.325Z,15.56
2017-06-17T06:05:33.826Z,15.6
2017-06-17T06:06:46.460Z,15.64
2017-06-17T06:07:59.375Z,15.59
2017-06-17T06:09:12.284Z,15.62
2017-06-17T06:10:25.195Z,15.53
2017-06-17T06:11:38.117Z,15.38
2017-06-17T06:12:51.027Z,15.44
2017-06-17T06:14:03.943Z,15.34
2017-06-17T06:15:16.389Z,15.43
2017-06-17T06:16:29.297Z,15.4
2017-06-17T06:17:42.407Z,15.35
2017-06-17T06:18:55.319Z,15.35
2017-06-17T06:20:07.737Z,15.35
2017-06-17T06:21:20.649Z,15.33
2017-06-17T06:22:33.765Z,15.41
2017-06-17T06:23:46.676Z,15.37
2017-06-17T06:24:59.587Z,15.49
2017-06-17T06:26:11.932Z,15.34
2017-06-17T06:27:24.704Z,15.33
2017-06-17T06:28:37.677Z,15.35
2017-06-17T06:29:50.446Z,15.37
2017-06-17T06:31:03.232Z,15.37
2017-06-17T06:32:15.551Z,15.44
2017-06-17T06:33:28.339Z,15.43
2017-06-17T06:34:41.127Z,15.41
2017-06-17T06:35:53.907Z,15.44
2017-06-17T06:37:06.197Z,15.41
2017-06-17T06:38:18.969Z,15.33
2017-06-17T06:39:31.490Z,15.38
2017-06-17T06:40:44.347Z,15.35
2017-06-17T06:41:57.203Z,15.37
2017-06-17T06:43:09.571Z,15.37
2017-06-17T06:44:22.632Z,15.28
2017-06-17T06:45:35.002Z,15.28
2017-06-17T06:46:47.856Z,15.27
2017-06-17T06:48:00.230Z,15.3
2017-06-17T06:49:12.107Z,15.22
2017-06-17T06:50:25.156Z,15.19
2017-06-17T06:51:38.014Z,15.27
2017-06-17T06:52:50.863Z,15.28
2017-06-17T06:54:03.229Z,15.31
2017-06-17T06:55:15.803Z,15.37
2017-06-17T06:56:28.659Z,15.46
2017-06-17T06:57:41.028Z,15.37
2017-06-17T06:58:53.879Z,15.35
2017-06-17T07:00:05.761Z,15.37
2017-06-17T07:01:17.869Z,15.37
2017-06-17T07:02:30.243Z,15.4
2017-06-17T07:03:42.127Z,15.37
2017-06-17T07:04:54.981Z,15.38
2017-06-17T07:06:07.552Z,15.37
2017-06-17T07:07:20.410Z,15.44
2017-06-17T07:08:32.780Z,15.43
2017-06-17T07:09:45.634Z,15.35
2017-06-17T07:10:58.491Z,15.31
2017-06-17T07:12:11.347Z,15.35
2017-06-17T07:13:24.204Z,15.37
2017-06-17T07:14:37.058Z,15.4
2017-06-17T07:15:49.919Z,15.35
2017-06-17T07:17:02.773Z,15.33
2017-06-17T07:18:15.629Z,15.33
2017-06-17T07:19:27.528Z,15.27
2017-06-17T07:20:40.408Z,15.25
2017-06-17T07:21:53.290Z,15.25
2017-06-17T07:23:06.142Z,15.3
2017-06-17T07:24:18.023Z,15.23
2017-06-17T07:25:30.403Z,15.27
2017-06-17T07:26:43.254Z,15.28
2017-06-17T07:27:56.305Z,15.33
2017-06-17T07:29:09.159Z,15.28
2017-06-17T07:30:21.524Z,15.25
2017-06-17T07:31:33.410Z,15.19
2017-06-17T07:32:45.777Z,15.12
2017-06-17T07:33:58.830Z,15.04
2017-06-17T07:35:11.684Z,15.04
2017-06-17T07:36:23.564Z,15.05
2017-06-17T07:37:36.426Z,15.11
2017-06-17T07:38:49.283Z,15.07
2017-06-17T07:40:02.136Z,14.95
2017-06-17T07:41:14.992Z,14.97
2017-06-17T07:42:27.851Z,14.97
2017-06-17T07:43:40.217Z,14.98
2017-06-17T07:44:52.782Z,15
2017-06-17T07:46:05.633Z,15.05
2017-06-17T07:47:18.490Z,15.07
2017-06-17T07:48:31.343Z,15.04
2017-06-17T07:49:44.398Z,15.01
2017-06-17T07:50:57.257Z,15.05
2017-06-17T07:52:09.625Z,15.04
2017-06-17T07:53:21.998Z,15.05
2017-06-17T07:54:34.849Z,15.07
2017-06-17T07:55:46.727Z,15.13
2017-06-17T07:56:59.587Z,15.2
2017-06-17T07:58:11.958Z,15.23
2017-06-17T07:59:24.808Z,15.23
2017-06-17T08:00:37.861Z,15.27
2017-06-17T08:01:50.229Z,15.31
2017-06-17T08:03:02.596Z,15.3
2017-06-17T08:04:15.451Z,15.28
2017-06-17T08:05:28.308Z,15.25
2017-06-17T08:06:41.361Z,15.27
2017-06-17T08:07:54.213Z,15.25
2017-06-17T08:09:07.071Z,15.27
2017-06-17T08:10:19.928Z,15.2
2017-06-17T08:11:32.782Z,15.11
2017-06-17T08:12:45.642Z,15.12
2017-06-17T08:13:58.006Z,15.11
2017-06-17T08:15:10.856Z,15.12
2017-06-17T08:16:23.223Z,15.01
2017-06-17T08:17:36.078Z,15.04
2017-06-17T08:18:48.447Z,15.07
2017-06-17T08:20:00.775Z,15.03
2017-06-17T08:21:13.073Z,15.03
2017-06-17T08:22:26.049Z,14.93
2017-06-17T08:23:38.828Z,15.04
2017-06-17T08:24:51.638Z,14.98
2017-06-17T08:26:04.409Z,14.98
2017-06-17T08:27:17.179Z,14.98
2017-06-17T08:28:29.948Z,14.95
2017-06-17T08:29:42.240Z,14.95
2017-06-17T08:30:55.016Z,14.95
2017-06-17T08:32:07.789Z,15.01
2017-06-17T08:33:20.761Z,14.98
2017-06-17T08:34:33.535Z,14.94
2017-06-17T08:35:46.310Z,15.01
2017-06-17T08:36:59.084Z,15.03
2017-06-17T08:38:11.858Z,15.01
2017-06-17T08:39:24.828Z,15.07
2017-06-17T08:40:37.136Z,14.97
2017-06-17T08:41:50.024Z,15.03
2017-06-17T08:43:02.426Z,15.01
2017-06-17T08:44:29.371Z,15.19
2017-06-17T08:45:41.775Z,15.12
2017-06-17T08:46:54.188Z,15.2
2017-06-17T08:48:07.084Z,15.23
2017-06-17T08:49:19.971Z,15.3
2017-06-17T08:50:32.865Z,15.18
2017-06-17T08:51:45.759Z,15.11
2017-06-17T08:52:58.699Z,15.09
2017-06-17T08:54:11.682Z,14.97
2017-06-17T08:55:24.853Z,14.86
2017-06-17T08:56:37.825Z,14.85
2017-06-17T08:57:50.796Z,14.86
2017-06-17T08:59:02.782Z,14.91
2017-06-17T09:00:15.462Z,14.8
2017-06-17T09:01:28.440Z,14.82
2017-06-17T09:02:40.921Z,14.86
2017-06-17T09:03:53.899Z,14.85
2017-06-17T09:05:05.884Z,14.9
2017-06-17T09:06:18.861Z,14.82
2017-06-17T09:07:31.836Z,14.93
2017-06-17T09:08:44.808Z,14.82
2017-06-17T09:09:57.793Z,14.83
2017-06-17T09:11:10.973Z,14.91
2017-06-17T09:12:23.451Z,14.85
2017-06-17T09:13:35.930Z,14.8
2017-06-17T09:14:48.406Z,14.86
2017-06-17T09:16:00.885Z,14.85
2017-06-17T09:17:13.365Z,14.82
2017-06-17T09:18:26.337Z,14.83
2017-06-17T09:19:38.818Z,14.83
2017-06-17T09:20:51.792Z,14.8
2017-06-17T09:22:04.776Z,14.8
2017-06-17T09:23:17.750Z,14.86
2017-06-17T09:24:30.721Z,14.71
2017-06-17T09:25:43.205Z,14.71
2017-06-17T09:26:56.159Z,14.72
2017-06-17T09:28:09.068Z,14.71
2017-06-17T09:29:21.485Z,14.74
2017-06-17T09:30:33.903Z,14.8
2017-06-17T09:31:46.320Z,14.85
2017-06-17T09:32:59.432Z,14.85
2017-06-17T09:34:11.856Z,14.79
2017-06-17T09:35:24.277Z,14.87
2017-06-17T09:36:37.190Z,14.75
2017-06-17T09:37:50.099Z,14.82
2017-06-17T09:39:02.522Z,14.9
2017-06-17T09:40:15.431Z,14.85
2017-06-17T09:41:28.341Z,14.87
2017-06-17T09:42:41.251Z,14.87
2017-06-17T09:43:54.175Z,14.95
2017-06-17T09:45:06.593Z,14.95
2017-06-17T09:46:19.024Z,14.97
2017-06-17T09:47:31.934Z,14.87
2017-06-17T09:48:44.360Z,14.82
2017-06-17T09:49:57.274Z,14.9
2017-06-17T09:51:09.210Z,14.86
2017-06-17T09:52:21.139Z,14.87
2017-06-17T09:53:34.050Z,14.98
2017-06-17T09:54:47.159Z,15.01
2017-06-17T09:56:00.070Z,15.01
2017-06-17T09:57:12.003Z,15.05
2017-06-17T09:58:24.911Z,15.04
2017-06-17T09:59:37.822Z,15
2017-06-17T10:00:50.734Z,15
2017-06-17T10:02:03.158Z,14.97
2017-06-17T10:03:16.077Z,15
2017-06-17T10:04:28.991Z,15.09
2017-06-17T10:05:42.102Z,15.05
2017-06-17T10:06:54.520Z,15.03
2017-06-17T10:08:05.956Z,15.09
2017-06-17T10:09:18.374Z,15.04
2017-06-17T10:10:31.283Z,15.05
2017-06-17T10:11:44.193Z,15.11
2017-06-17T10:12:57.107Z,15.12
2017-06-17T10:14:10.019Z,15.11
2017-06-17T10:15:22.946Z,15.07
2017-06-17T10:16:35.565Z,15.16
2017-06-17T10:17:48.475Z,15.13
2017-06-17T10:19:01.386Z,15.07
2017-06-17T10:20:14.298Z,15.09
2017-06-17T10:21:26.715Z,15.15
2017-06-17T10:22:39.345Z,15.2
2017-06-17T10:23:51.764Z,15.27
2017-06-17T10:25:04.673Z,15.28
2017-06-17T10:26:17.092Z,15.23
2017-06-17T10:27:44.050Z,15.37
2017-06-17T10:28:56.958Z,15.37
2017-06-17T10:30:08.885Z,15.31
2017-06-17T10:31:21.304Z,15.27
2017-06-17T10:32:33.922Z,15.18
2017-06-17T10:33:45.856Z,15.11
2017-06-17T10:34:58.767Z,15.15
2017-06-17T10:36:11.187Z,15.16
2017-06-17T10:37:23.609Z,15.09
2017-06-17T10:38:35.756Z,15.18
2017-06-17T10:39:48.173Z,15.23
2017-06-17T10:41:01.083Z,15.3
2017-06-17T10:42:13.506Z,15.3
2017-06-17T10:43:26.423Z,15.37
2017-06-17T10:44:39.335Z,15.35
2017-06-17T10:45:52.246Z,15.46
2017-06-17T10:47:05.153Z,15.38
2017-06-17T10:48:18.066Z,15.4
2017-06-17T10:49:30.976Z,15.37
2017-06-17T10:50:43.410Z,15.49
2017-06-17T10:51:55.829Z,15.34
2017-06-17T10:53:08.741Z,15.38
2017-06-17T10:54:21.649Z,15.49
2017-06-17T10:55:33.582Z,15.58
2017-06-17T10:56:46.495Z,15.53
2017-06-17T10:57:58.914Z,15.67
2017-06-17T10:59:11.826Z,15.76
2017-06-17T11:00:24.935Z,15.7
2017-06-17T11:01:37.850Z,15.73
2017-06-17T11:02:49.783Z,15.81
2017-06-17T11:04:02.694Z,15.81
2017-06-17T11:05:14.622Z,15.88
2017-06-17T11:06:27.043Z,15.88
2017-06-17T11:07:39.951Z,15.93
2017-06-17T11:08:52.368Z,15.89
2017-06-17T11:10:04.790Z,15.89
2017-06-17T11:11:17.903Z,15.99
2017-06-17T11:12:30.819Z,15.99
2017-06-17T11:13:43.735Z,16.18
2017-06-17T11:14:56.650Z,16.14
2017-06-17T11:16:09.275Z,16.29
2017-06-17T11:17:22.191Z,16.25
2017-06-17T11:18:35.109Z,16.33
2017-06-17T11:19:48.018Z,16.34
2017-06-17T11:21:00.928Z,16.32
2017-06-17T11:22:13.075Z,16.4
2017-06-17T11:24:08.451Z,16.4
2017-06-17T11:25:20.780Z,16.52
2017-06-17T11:26:33.093Z,16.5
2017-06-17T11:27:45.923Z,16.47
2017-06-17T11:28:58.790Z,16.5
2017-06-17T11:30:11.664Z,16.5
2017-06-17T11:31:24.057Z,16.54
2017-06-17T11:32:36.698Z,16.55
2017-06-17T11:33:50.427Z,16.7
2017-06-17T11:35:04.162Z,16.78
2017-06-17T11:36:18.126Z,16.8
2017-06-17T11:37:32.081Z,16.88
2017-06-17T11:38:45.482Z,16.87
2017-06-17T11:39:59.718Z,16.91
2017-06-17T11:41:14.438Z,17
2017-06-17T11:42:28.301Z,17.05
2017-06-17T11:43:42.429Z,17.2
2017-06-17T11:44:56.340Z,17.17
2017-06-17T11:46:09.294Z,17.18
2017-06-17T11:47:22.780Z,17.32
2017-06-17T11:48:36.339Z,17.25
2017-06-17T11:49:48.602Z,17.45
2017-06-17T11:51:01.834Z,17.46
2017-06-17T11:52:15.761Z,17.46
2017-06-17T11:53:30.045Z,17.54
2017-06-17T11:54:44.311Z,17.6
2017-06-17T11:55:57.898Z,17.74
2017-06-17T11:57:12.156Z,17.7
2017-06-17T11:58:26.046Z,17.84
2017-06-17T11:59:39.715Z,17.94
2017-06-17T12:00:52.870Z,18.01
2017-06-17T12:02:06.349Z,17.95
2017-06-17T12:03:19.829Z,18.04
2017-06-17T12:04:33.318Z,18.1
2017-06-17T12:05:46.377Z,18.16
2017-06-17T12:06:59.276Z,18.2
2017-06-17T12:08:11.674Z,18.32
2017-06-17T12:09:23.575Z,18.31
2017-06-17T12:10:50.508Z,18.29
2017-06-17T12:12:02.894Z,18.32
2017-06-17T12:13:15.768Z,18.36
2017-06-17T12:14:28.646Z,18.39
2017-06-17T12:15:41.522Z,18.41
2017-06-17T12:16:54.398Z,18.51
2017-06-17T12:18:07.264Z,18.49
2017-06-17T12:19:19.157Z,18.54
2017-06-17T12:20:32.027Z,18.66
2017-06-17T12:21:44.856Z,18.5
2017-06-17T12:22:57.636Z,18.69
2017-06-17T12:24:09.108Z,18.66
2017-06-17T12:25:21.619Z,18.69
2017-06-17T12:26:34.470Z,18.68
2017-06-17T12:27:47.330Z,18.75
2017-06-17T12:28:59.625Z,18.78
2017-06-17T12:30:11.918Z,18.87
2017-06-17T12:31:24.212Z,18.91
2017-06-17T12:32:36.992Z,18.97
2017-06-17T12:33:49.767Z,19.02
2017-06-17T12:35:02.548Z,19.06
2017-06-17T12:36:14.844Z,19.12
2017-06-17T12:37:27.820Z,19.17
2017-06-17T12:38:40.116Z,19.28
2017-06-17T12:39:52.903Z,19.35
2017-06-17T12:41:05.679Z,19.4
2017-06-17T12:42:18.659Z,19.43
2017-06-17T12:43:30.956Z,19.55
2017-06-17T12:44:43.736Z,19.62
2017-06-17T12:45:56.035Z,19.7
2017-06-17T12:47:08.813Z,19.7
2017-06-17T12:48:21.308Z,19.71
2017-06-17T12:49:34.085Z,19.72
2017-06-17T12:50:46.868Z,19.7
2017-06-17T12:51:59.162Z,19.85
2017-06-17T12:53:11.458Z,19.83
2017-06-17T12:54:23.751Z,19.94
2017-06-17T12:55:36.532Z,20.07
2017-06-17T12:56:49.308Z,20.02
2017-06-17T12:58:01.607Z,20.23
2017-06-17T12:59:13.421Z,20.22
2017-06-17T13:00:25.716Z,20.31
2017-06-17T13:01:38.493Z,20.33
2017-06-17T13:02:50.791Z,20.44
2017-06-17T13:04:03.087Z,20.46
2017-06-17T13:05:15.863Z,20.34
2017-06-17T13:06:28.644Z,20.5
2017-06-17T13:07:40.940Z,20.53
2017-06-17T13:08:53.724Z,20.6
2017-06-17T13:10:06.505Z,20.66
2017-06-17T13:11:18.803Z,20.68
2017-06-17T13:12:31.581Z,20.73
2017-06-17T13:13:44.386Z,20.73
2017-06-17T13:14:56.688Z,20.75
2017-06-17T13:16:08.506Z,20.81
2017-06-17T13:17:19.839Z,20.73
2017-06-17T13:18:32.619Z,20.76
2017-06-17T13:19:45.394Z,20.76
2017-06-17T13:20:58.381Z,20.73
2017-06-17T13:22:10.679Z,20.73
2017-06-17T13:23:23.460Z,20.76
2017-06-17T13:24:35.757Z,20.82
2017-06-17T13:25:48.532Z,20.81
2017-06-17T13:27:01.028Z,20.76
2017-06-17T13:28:13.806Z,20.66
2017-06-17T13:29:25.626Z,20.64
2017-06-17T13:30:38.402Z,20.66
2017-06-17T13:31:50.899Z,20.63
2017-06-17T13:33:03.675Z,20.5
2017-06-17T13:34:16.453Z,20.44
2017-06-17T13:35:28.752Z,20.34
2017-06-17T13:36:41.046Z,20.37
2017-06-17T13:37:53.823Z,20.4
2017-06-17T13:39:06.599Z,20.35
2017-06-17T13:40:19.379Z,20.33
2017-06-17T13:41:31.676Z,20.35
2017-06-17T13:42:44.173Z,20.44
2017-06-17T13:43:56.952Z,20.4
2017-06-17T13:45:08.768Z,20.51
2017-06-17T13:46:21.549Z,20.48
2017-06-17T13:47:34.330Z,20.48
2017-06-17T13:48:47.105Z,20.44
2017-06-17T13:49:59.401Z,20.51
2017-06-17T13:51:11.703Z,20.6
2017-06-17T13:52:24.000Z,20.57
2017-06-17T13:53:36.498Z,20.58
2017-06-17T13:54:49.276Z,20.71
2017-06-17T13:56:01.093Z,20.76
2017-06-17T13:57:13.388Z,20.83
2017-06-17T13:58:25.693Z,20.88
2017-06-17T13:59:38.671Z,20.96
2017-06-17T14:00:51.451Z,21.06
2017-06-17T14:02:03.267Z,21.08
2017-06-17T14:03:16.046Z,21.13
2017-06-17T14:04:27.863Z,21.26
2017-06-17T14:05:40.641Z,21.24
2017-06-17T14:06:53.419Z,21.4
2017-06-17T14:08:05.713Z,21.37
2017-06-17T14:09:18.492Z,21.53
2017-06-17T14:10:31.311Z,21.61
2017-06-17T14:11:44.094Z,21.67
2017-06-17T14:12:56.874Z,21.64
2017-06-17T14:14:09.656Z,21.86
2017-06-17T14:15:21.953Z,21.81
2017-06-17T14:16:34.252Z,21.71
2017-06-17T14:17:47.032Z,21.81
2017-06-17T14:18:59.813Z,21.81
2017-06-17T14:20:12.596Z,21.82
2017-06-17T14:21:25.097Z,21.99
2017-06-17T14:22:37.878Z,22.08
2017-06-17T14:23:50.184Z,22.06
2017-06-17T14:25:02.000Z,22.2
2017-06-17T14:26:14.018Z,22.21
2017-06-17T14:27:26.317Z,22.29
2017-06-17T14:28:39.097Z,22.27
2017-06-17T14:29:51.395Z,22.39
2017-06-17T14:31:03.694Z,22.46
2017-06-17T14:32:16.674Z,22.49
2017-06-17T14:33:28.971Z,22.52
2017-06-17T14:34:41.269Z,22.59
2017-06-17T14:35:53.566Z,22.6
2017-06-17T14:37:05.867Z,22.64
2017-06-17T14:38:17.684Z,22.49
2017-06-17T14:39:29.499Z,22.44
2017-06-17T14:40:41.314Z,22.39
2017-06-17T14:41:54.099Z,22.33
2017-06-17T14:43:06.405Z,22.44
2017-06-17T14:44:19.191Z,22.45
2017-06-17T14:45:31.988Z,22.52
2017-06-17T14:46:44.289Z,22.57
2017-06-17T14:47:56.588Z,22.6
2017-06-17T14:49:09.377Z,22.66
2017-06-17T14:50:22.164Z,22.66
2017-06-17T14:51:34.951Z,22.79
2017-06-17T14:52:46.770Z,22.78
2017-06-17T14:53:59.749Z,22.86
2017-06-17T14:55:12.538Z,22.64
2017-06-17T14:56:24.844Z,22.69
2017-06-17T14:57:37.646Z,22.57
2017-06-17T14:58:49.474Z,22.45
2017-06-17T15:00:01.016Z,22.52
2017-06-17T15:01:12.842Z,22.52
2017-06-17T15:02:25.147Z,22.6
2017-06-17T15:03:37.934Z,22.56
2017-06-17T15:04:49.963Z,22.48
2017-06-17T15:06:02.744Z,22.46
2017-06-17T15:07:15.043Z,22.52
2017-06-17T15:08:27.823Z,22.49
2017-06-17T15:09:40.135Z,22.49
2017-06-17T15:10:53.137Z,22.46
2017-06-17T15:12:04.492Z,22.63
2017-06-17T15:13:16.323Z,22.57
2017-06-17T15:14:29.167Z,22.56
2017-06-17T15:15:41.671Z,22.64
2017-06-17T15:16:53.972Z,22.7
2017-06-17T15:18:06.750Z,22.69
2017-06-17T15:19:19.048Z,22.74
2017-06-17T15:20:31.838Z,22.67
2017-06-17T15:21:44.823Z,22.86
2017-06-17T15:22:57.123Z,22.91
2017-06-17T15:24:08.945Z,22.91
2017-06-17T15:25:21.249Z,22.88
2017-06-17T15:26:34.239Z,23
2017-06-17T15:27:46.538Z,23.01
2017-06-17T15:28:59.318Z,22.94
2017-06-17T15:30:11.136Z,23.01
2017-06-17T15:31:22.954Z,23.11
2017-06-17T15:32:34.976Z,23.12
2017-06-17T15:33:47.821Z,23.14
2017-06-17T15:34:59.759Z,23.14
2017-06-17T15:36:11.699Z,23.25
2017-06-17T15:37:24.817Z,23.23
2017-06-17T15:38:37.735Z,23.34
2017-06-17T15:39:50.655Z,23.39
2017-06-17T15:41:03.580Z,23.41
2017-06-17T15:42:16.505Z,23.44